createdAt,value
2023-10-20T00:02:06.232Z,83.25
2023-10-20T00:04:34.890Z,83.28
2023-10-20T00:07:01.516Z,82.68
2023-10-20T00:09:28.172Z,83.93
2023-10-20T00:11:54.698Z,75.65
2023-10-20T00:14:21.304Z,78.25
2023-10-20T00:16:47.898Z,86.68
2023-10-20T00:19:14.391Z,87.13
2023-10-20T00:21:40.921Z,83.80
2023-10-20T00:24:07.695Z,82.60
2023-10-20T00:26:34.256Z,87.93
2023-10-20T00:29:01.549Z,83.20
2023-10-20T00:31:28.554Z,80.20
2023-10-20T00:33:55.100Z,81.75
2023-10-20T00:36:21.602Z,80.80
2023-10-20T00:38:48.093Z,78.70
2023-10-20T00:41:14.765Z,84.72
2023-10-20T00:43:41.556Z,83.63
2023-10-20T00:46:11.666Z,82.65
2023-10-20T00:48:38.755Z,78.53
2023-10-20T00:51:08.644Z,78.95
2023-10-20T00:53:36.205Z,72.22
2023-10-20T00:56:04.540Z,80.47
2023-10-20T00:58:31.759Z,77.18
2023-10-20T01:00:58.311Z,84.70
2023-10-20T01:03:25.118Z,84.40
2023-10-20T01:05:52.849Z,77.75
2023-10-20T01:08:19.333Z,78.75
2023-10-20T01:10:45.968Z,82.53
2023-10-20T01:13:12.516Z,79.20
2023-10-20T01:15:39.508Z,76.65
2023-10-20T01:18:06.224Z,78.32
2023-10-20T01:20:32.825Z,74.82
2023-10-20T01:23:00.817Z,77.25
2023-10-20T01:25:28.094Z,80.65
2023-10-20T01:27:54.880Z,78.10
2023-10-20T01:30:22.231Z,74.57
2023-10-20T01:32:49.155Z,78.75
2023-10-20T01:35:15.876Z,90.93
2023-10-20T01:37:42.470Z,87.53
2023-10-20T01:40:10.953Z,91.97
2023-10-20T01:42:37.550Z,95.07
2023-10-20T01:45:04.334Z,91.22
2023-10-20T01:47:30.861Z,89.88
2023-10-20T01:49:57.673Z,83.20
2023-10-20T01:52:24.244Z,97.78
2023-10-20T01:54:50.778Z,90.55
2023-10-20T01:57:17.326Z,93.82
2023-10-20T01:59:43.813Z,89.55
2023-10-20T02:02:10.490Z,83.43
2023-10-20T02:04:37.675Z,85.05
2023-10-20T02:07:04.333Z,78.15
2023-10-20T02:09:30.819Z,84.95
2023-10-20T02:12:00.008Z,77.25
2023-10-20T02:14:27.040Z,93.78
2023-10-20T02:16:53.690Z,89.28
2023-10-20T02:19:20.241Z,88.95
2023-10-20T02:21:48.530Z,85.20
2023-10-20T02:24:15.349Z,92.55
2023-10-20T02:26:41.989Z,89.93
2023-10-20T02:29:08.652Z,86.05
2023-10-20T02:31:35.277Z,91.97
2023-10-20T02:34:01.769Z,97.07
2023-10-20T02:36:28.357Z,91.00
2023-10-20T02:38:54.932Z,107.35
2023-10-20T02:41:21.552Z,101.93
2023-10-20T02:43:48.124Z,96.82
2023-10-20T02:46:14.783Z,105.30
2023-10-20T02:48:41.488Z,113.63
2023-10-20T02:51:11.019Z,88.43
2023-10-20T02:53:40.626Z,87.10
2023-10-20T02:56:13.962Z,95.57
2023-10-20T02:58:40.859Z,83.35
2023-10-20T03:01:10.703Z,94.18
2023-10-20T03:03:37.943Z,88.97
2023-10-20T03:06:05.467Z,86.15
2023-10-20T03:08:32.458Z,91.80
2023-10-20T03:10:59.053Z,86.43
2023-10-20T03:13:26.789Z,84.22
2023-10-20T03:15:54.010Z,83.18
2023-10-20T03:18:20.909Z,91.28
2023-10-20T03:20:48.913Z,93.00
2023-10-20T03:23:16.366Z,92.03
2023-10-20T03:25:43.430Z,95.13
2023-10-20T03:28:09.984Z,94.68
2023-10-20T03:30:40.585Z,101.93
2023-10-20T03:33:12.135Z,93.25
2023-10-20T03:35:38.866Z,90.32
2023-10-20T03:38:06.534Z,96.13
2023-10-20T03:40:37.699Z,100.13
2023-10-20T03:43:09.640Z,103.78
2023-10-20T03:45:57.859Z,93.20
2023-10-20T03:48:25.166Z,97.60
2023-10-20T03:50:53.347Z,95.43
2023-10-20T03:53:23.550Z,100.68
2023-10-20T03:56:08.104Z,107.07
2023-10-20T03:58:37.184Z,94.75
2023-10-20T04:01:04.111Z,99.72
2023-10-20T04:03:33.876Z,99.80
2023-10-20T04:06:02.120Z,106.63
2023-10-20T04:08:29.008Z,104.13
2023-10-20T04:10:59.109Z,104.63
2023-10-20T04:13:25.729Z,103.43
2023-10-20T04:15:53.995Z,100.80
2023-10-20T04:18:20.906Z,98.53
2023-10-20T04:20:49.469Z,97.53
2023-10-20T04:23:18.069Z,101.82
2023-10-20T04:25:53.910Z,106.20
2023-10-20T04:28:21.804Z,102.88
2023-10-20T04:31:06.899Z,97.85
2023-10-20T04:33:52.193Z,101.75
2023-10-20T04:36:37.255Z,100.15
2023-10-20T04:39:22.457Z,104.47
2023-10-20T04:41:56.657Z,101.75
2023-10-20T04:44:23.423Z,95.82
2023-10-20T04:47:01.846Z,106.00
2023-10-20T04:49:47.681Z,101.45
2023-10-20T04:52:32.943Z,95.63
2023-10-20T04:55:19.769Z,104.68
2023-10-20T05:00:13.559Z,99.78
2023-10-20T05:02:53.097Z,95.28
2023-10-20T05:05:26.377Z,100.85
2023-10-20T05:07:53.540Z,98.57
2023-10-20T05:10:20.797Z,106.88
2023-10-20T05:12:48.015Z,103.95
2023-10-20T05:15:14.927Z,98.75
2023-10-20T05:17:41.804Z,93.97
2023-10-20T05:20:14.257Z,96.43
2023-10-20T05:22:43.715Z,109.13
2023-10-20T05:25:12.792Z,106.30
2023-10-20T05:27:39.802Z,109.63
2023-10-20T05:30:08.363Z,99.07
2023-10-20T05:32:38.718Z,105.57
2023-10-20T05:35:08.528Z,105.72
2023-10-20T05:37:35.353Z,103.32
2023-10-20T05:40:02.477Z,99.47
2023-10-20T05:42:29.111Z,99.00
2023-10-20T05:45:04.846Z,105.65
2023-10-20T05:47:31.756Z,102.20
2023-10-20T05:49:59.187Z,96.28
2023-10-20T05:52:25.849Z,103.45
2023-10-20T05:54:52.452Z,96.60
2023-10-20T05:57:18.987Z,99.40
2023-10-20T05:59:46.943Z,104.30
2023-10-20T06:02:13.596Z,101.13
2023-10-20T06:04:40.228Z,97.97
2023-10-20T06:07:08.298Z,98.78
2023-10-20T06:09:35.130Z,96.03
2023-10-20T06:12:02.219Z,102.03
2023-10-20T06:14:28.935Z,100.95
2023-10-20T06:16:56.012Z,90.75
2023-10-20T06:19:22.620Z,96.00
2023-10-20T06:21:49.413Z,98.95
2023-10-20T06:24:15.916Z,101.95
2023-10-20T06:26:42.482Z,92.88
2023-10-20T06:29:29.022Z,100.35
2023-10-20T06:31:59.675Z,95.63
2023-10-20T06:34:26.269Z,90.22
2023-10-20T06:37:02.459Z,91.78
2023-10-20T06:39:28.896Z,97.03
2023-10-20T06:41:55.405Z,94.57
2023-10-20T06:44:21.919Z,85.32
2023-10-20T06:46:48.461Z,95.50
2023-10-20T06:49:19.925Z,91.47
2023-10-20T06:51:50.341Z,96.15
2023-10-20T06:54:17.732Z,94.63
2023-10-20T06:56:45.043Z,95.38
2023-10-20T06:59:17.845Z,99.85
2023-10-20T07:01:45.640Z,99.53
2023-10-20T07:04:12.990Z,94.30
2023-10-20T07:06:39.721Z,95.70
2023-10-20T07:09:15.610Z,110.65
2023-10-20T07:11:43.153Z,103.68
2023-10-20T07:14:11.671Z,114.03
2023-10-20T07:16:38.340Z,112.38
2023-10-20T07:19:05.121Z,118.63
2023-10-20T07:21:31.882Z,96.25
2023-10-20T07:23:58.482Z,112.05
2023-10-20T07:26:25.638Z,111.38
2023-10-20T07:28:52.319Z,108.13
2023-10-20T07:31:27.454Z,101.18
2023-10-20T07:33:54.280Z,92.97
2023-10-20T07:36:21.469Z,80.22
2023-10-20T07:38:48.229Z,79.07
2023-10-20T07:41:14.891Z,82.00
2023-10-20T07:43:41.846Z,94.72
2023-10-20T07:46:14.758Z,98.32
2023-10-20T07:48:41.518Z,81.00
2023-10-20T07:51:08.210Z,86.60
2023-10-20T07:53:35.067Z,89.80
2023-10-20T07:56:02.061Z,78.63
2023-10-20T07:58:29.245Z,76.70
2023-10-20T08:00:55.802Z,79.60
2023-10-20T08:03:23.886Z,76.80
2023-10-20T08:05:51.463Z,76.95
2023-10-20T08:08:18.683Z,62.95
2023-10-20T08:10:45.387Z,61.85
2023-10-20T08:13:11.894Z,58.47
2023-10-20T08:15:39.915Z,52.55
2023-10-20T08:18:08.583Z,50.88
2023-10-20T08:20:35.493Z,55.08
2023-10-20T08:23:02.051Z,54.50
2023-10-20T08:25:28.600Z,59.67
2023-10-20T08:27:55.161Z,48.35
2023-10-20T08:30:22.087Z,60.25
2023-10-20T08:32:48.730Z,59.50
2023-10-20T08:35:15.551Z,59.63
2023-10-20T08:37:42.057Z,59.30
2023-10-20T08:40:11.821Z,63.95
2023-10-20T08:42:39.878Z,59.78
2023-10-20T08:45:11.976Z,68.57
2023-10-20T08:47:39.688Z,53.10
2023-10-20T08:50:08.429Z,58.15
2023-10-20T08:52:35.936Z,48.90
2023-10-20T08:55:05.413Z,53.30
2023-10-20T08:57:32.044Z,53.75
2023-10-20T08:59:58.765Z,49.83
2023-10-20T09:02:36.009Z,44.15
2023-10-20T09:05:02.500Z,45.58
2023-10-20T09:07:30.989Z,42.92
2023-10-20T09:09:57.544Z,40.33
2023-10-20T09:12:26.201Z,47.75
2023-10-20T09:14:57.660Z,46.83
2023-10-20T09:17:24.797Z,42.20
2023-10-20T09:19:51.501Z,41.83
2023-10-20T09:22:27.556Z,40.90
2023-10-20T09:24:56.606Z,44.13
2023-10-20T09:27:23.702Z,44.00
2023-10-20T09:29:51.251Z,35.95
2023-10-20T09:32:18.212Z,42.40
2023-10-20T09:34:44.729Z,30.50
2023-10-20T09:37:13.441Z,32.83
2023-10-20T09:39:40.616Z,32.03
2023-10-20T09:42:07.916Z,32.35
2023-10-20T09:44:48.323Z,30.40
2023-10-20T09:47:35.359Z,34.88
2023-10-20T09:50:02.240Z,35.05
2023-10-20T09:52:30.712Z,33.97
2023-10-20T09:54:57.584Z,39.78
2023-10-20T09:57:24.403Z,37.72
2023-10-20T09:59:54.339Z,29.27
2023-10-20T10:02:28.095Z,33.05
2023-10-20T10:04:55.391Z,39.08
2023-10-20T10:07:48.206Z,37.15
2023-10-20T10:10:21.556Z,34.38
2023-10-20T10:12:59.209Z,32.92
2023-10-20T10:15:35.151Z,40.67
2023-10-20T10:18:08.387Z,34.35
2023-10-20T10:20:41.139Z,28.13
2023-10-20T10:23:10.125Z,29.17
2023-10-20T10:25:36.711Z,27.48
2023-10-20T10:28:09.405Z,26.73
2023-10-20T10:30:38.133Z,32.53
2023-10-20T10:33:05.710Z,37.90
2023-10-20T10:35:32.429Z,30.00
2023-10-20T10:37:58.993Z,35.20
2023-10-20T10:40:26.386Z,31.63
2023-10-20T10:42:53.475Z,32.10
2023-10-20T10:45:23.083Z,28.63
2023-10-20T10:48:04.048Z,27.95
2023-10-20T10:50:31.483Z,32.95
2023-10-20T10:52:57.992Z,27.33
2023-10-20T10:55:25.889Z,33.67
2023-10-20T10:57:52.546Z,25.48
2023-10-20T11:00:19.711Z,26.75
2023-10-20T11:02:46.894Z,24.70
2023-10-20T11:05:14.143Z,27.08
2023-10-20T11:07:41.519Z,20.20
2023-10-20T11:10:08.823Z,21.75
2023-10-20T11:12:36.116Z,25.45
2023-10-20T11:15:03.544Z,21.55
2023-10-20T11:17:30.860Z,14.98
2023-10-20T11:19:57.601Z,22.35
2023-10-20T11:22:24.290Z,10.68
2023-10-20T11:24:51.771Z,12.13
2023-10-20T11:27:18.512Z,10.18
2023-10-20T11:29:58.299Z,16.50
2023-10-20T11:32:27.141Z,8.60
2023-10-20T11:34:54.137Z,7.70
2023-10-20T11:37:20.680Z,10.52
2023-10-20T11:39:47.123Z,14.18
2023-10-20T11:42:13.598Z,10.98
2023-10-20T11:44:40.342Z,8.25
2023-10-20T11:47:07.694Z,10.80
2023-10-20T11:49:34.421Z,7.38
2023-10-20T11:52:01.447Z,10.00
2023-10-20T11:54:27.937Z,7.28
2023-10-20T11:56:54.526Z,9.93
2023-10-20T11:59:21.267Z,7.82
2023-10-20T12:01:47.921Z,8.35
2023-10-20T12:04:14.757Z,9.73
2023-10-20T12:06:41.326Z,8.15
2023-10-20T12:09:14.928Z,8.90
2023-10-20T12:11:42.046Z,6.65
2023-10-20T12:14:10.490Z,9.88
2023-10-20T12:16:37.203Z,7.47
2023-10-20T12:19:05.380Z,10.95
2023-10-20T12:21:32.033Z,9.55
2023-10-20T12:23:58.662Z,10.10
2023-10-20T12:26:28.220Z,8.15
2023-10-20T12:28:54.824Z,7.10
2023-10-20T12:31:21.303Z,4.32
2023-10-20T12:33:48.035Z,7.22
2023-10-20T12:36:14.883Z,6.13
2023-10-20T12:38:44.972Z,7.28
2023-10-20T12:41:15.038Z,10.63
2023-10-20T12:43:42.293Z,12.18
2023-10-20T12:46:13.448Z,14.52
2023-10-20T12:48:41.578Z,6.05
2023-10-20T12:51:11.977Z,12.10
2023-10-20T12:53:38.635Z,14.88
2023-10-20T12:56:06.325Z,14.15
2023-10-20T12:58:36.741Z,12.32
2023-10-20T13:01:03.614Z,12.55
2023-10-20T13:03:30.874Z,13.68
2023-10-20T13:05:57.597Z,9.60
2023-10-20T13:08:25.418Z,15.55
2023-10-20T13:10:52.898Z,8.50
2023-10-20T13:13:19.587Z,17.95
2023-10-20T13:15:46.373Z,13.38
2023-10-20T13:18:16.986Z,19.33
2023-10-20T13:20:46.697Z,15.82
2023-10-20T13:23:13.951Z,10.15
2023-10-20T13:25:40.485Z,16.75
2023-10-20T13:28:07.203Z,17.02
2023-10-20T13:30:33.789Z,15.45
2023-10-20T13:33:01.832Z,20.08
2023-10-20T13:35:28.393Z,10.57
2023-10-20T13:37:54.978Z,13.07
2023-10-20T13:40:21.709Z,12.50
2023-10-20T13:42:48.318Z,16.65
2023-10-20T13:45:14.914Z,10.88
2023-10-20T13:47:41.559Z,13.23
2023-10-20T13:50:10.183Z,8.10
2023-10-20T13:52:36.896Z,11.23
2023-10-20T13:55:03.509Z,9.38
2023-10-20T13:57:29.993Z,16.00
2023-10-20T13:59:56.564Z,10.90
2023-10-20T14:02:23.328Z,13.18
2023-10-20T14:04:50.391Z,12.85
2023-10-20T14:07:17.494Z,14.52
2023-10-20T14:09:44.021Z,11.30
2023-10-20T14:12:10.466Z,10.45
2023-10-20T14:14:37.480Z,8.57
2023-10-20T14:17:10.415Z,8.93
2023-10-20T14:19:37.263Z,12.48
2023-10-20T14:22:04.852Z,13.98
2023-10-20T14:24:31.418Z,9.43
2023-10-20T14:27:00.055Z,11.77
2023-10-20T14:29:26.847Z,13.95
2023-10-20T14:31:53.805Z,18.70
2023-10-20T14:34:20.727Z,17.73
2023-10-20T14:36:47.523Z,11.38
2023-10-20T14:39:14.043Z,12.65
2023-10-20T14:41:40.640Z,11.82
2023-10-20T14:44:07.317Z,13.98
2023-10-20T14:46:33.859Z,12.63
2023-10-20T14:49:00.471Z,12.90
2023-10-20T14:51:27.036Z,14.60
2023-10-20T14:53:53.741Z,12.35
2023-10-20T14:56:20.255Z,13.15
2023-10-20T14:58:46.860Z,12.43
2023-10-20T15:01:13.415Z,8.95
2023-10-20T15:03:40.165Z,20.85
2023-10-20T15:06:07.140Z,10.80
2023-10-20T15:08:34.599Z,11.02
2023-10-20T15:11:05.576Z,15.07
2023-10-20T15:13:32.729Z,7.00
2023-10-20T15:16:03.568Z,15.45
2023-10-20T15:18:31.260Z,16.50
2023-10-20T15:20:58.470Z,17.42
2023-10-20T15:23:25.016Z,13.10
2023-10-20T15:25:51.535Z,11.65
2023-10-20T15:28:18.151Z,13.60
2023-10-20T15:30:44.655Z,16.08
2023-10-20T15:33:11.354Z,10.52
2023-10-20T15:35:41.332Z,9.55
2023-10-20T15:38:11.485Z,26.73
2023-10-20T15:40:38.670Z,17.60
2023-10-20T15:43:05.252Z,20.00
2023-10-20T15:45:31.878Z,11.98
2023-10-20T15:48:01.252Z,12.32
2023-10-20T15:50:27.893Z,15.02
2023-10-20T15:52:54.448Z,16.35
2023-10-20T15:55:20.888Z,26.20
2023-10-20T15:57:47.337Z,21.65
2023-10-20T16:00:14.172Z,22.83
2023-10-20T16:02:41.068Z,29.67
2023-10-20T16:05:07.908Z,10.93
2023-10-20T16:07:34.385Z,31.42
2023-10-20T16:10:00.860Z,18.85
2023-10-20T16:12:27.329Z,18.02
2023-10-20T16:14:56.277Z,21.42
2023-10-20T16:17:23.444Z,18.95
2023-10-20T16:19:50.128Z,16.73
2023-10-20T16:22:16.587Z,20.65
2023-10-20T16:24:43.047Z,20.75
2023-10-20T16:27:09.737Z,18.15
2023-10-20T16:29:36.444Z,22.52
2023-10-20T16:32:03.156Z,29.73
2023-10-20T16:34:29.978Z,27.45
2023-10-20T16:36:56.614Z,22.48
2023-10-20T16:39:24.104Z,12.07
2023-10-20T16:41:51.268Z,19.75
2023-10-20T16:44:17.999Z,20.05
2023-10-20T16:46:44.605Z,12.02
2023-10-20T16:49:11.350Z,20.02
2023-10-20T16:51:39.287Z,17.48
2023-10-20T16:54:05.961Z,18.65
2023-10-20T16:56:32.526Z,21.05
2023-10-20T16:58:59.494Z,15.63
2023-10-20T17:01:28.445Z,18.45
2023-10-20T17:03:55.372Z,18.40
2023-10-20T17:06:22.129Z,16.48
2023-10-20T17:08:48.691Z,13.77
2023-10-20T17:11:16.669Z,16.58
2023-10-20T17:13:43.119Z,18.70
2023-10-20T17:16:10.112Z,17.27
2023-10-20T17:18:36.730Z,12.23
2023-10-20T17:21:10.322Z,14.02
2023-10-20T17:23:36.862Z,11.20
2023-10-20T17:26:05.181Z,13.35
2023-10-20T17:28:32.092Z,17.23
2023-10-20T17:31:00.771Z,11.23
2023-10-20T17:33:27.670Z,10.70
2023-10-20T17:35:54.915Z,15.82
2023-10-20T17:38:21.488Z,14.07
2023-10-20T17:40:48.232Z,12.38
2023-10-20T17:43:14.839Z,10.70
2023-10-20T17:45:41.416Z,10.98
2023-10-20T17:48:08.798Z,12.00
2023-10-20T17:50:38.951Z,9.75
2023-10-20T17:53:06.271Z,13.88
2023-10-20T17:55:33.137Z,11.68
2023-10-20T17:57:59.946Z,11.30
2023-10-20T18:00:26.487Z,9.82
2023-10-20T18:02:54.561Z,13.23
2023-10-20T18:05:21.292Z,9.02
2023-10-20T18:07:48.073Z,14.07
2023-10-20T18:10:14.657Z,11.23
2023-10-20T18:12:41.246Z,12.13
2023-10-20T18:15:08.078Z,10.38
2023-10-20T18:17:34.662Z,12.32
2023-10-20T18:20:01.275Z,11.10
2023-10-20T18:22:27.823Z,14.77
2023-10-20T18:24:54.383Z,16.30
2023-10-20T18:27:21.050Z,12.80
2023-10-20T18:29:47.596Z,13.95
2023-10-20T18:32:14.206Z,14.52
2023-10-20T18:34:40.660Z,13.18
2023-10-20T18:37:07.211Z,12.38
2023-10-20T18:39:33.992Z,15.55
2023-10-20T18:42:00.910Z,11.38
2023-10-20T18:44:27.463Z,12.38
2023-10-20T18:46:53.976Z,14.85
2023-10-20T18:49:21.559Z,15.52
2023-10-20T18:51:48.029Z,15.68
2023-10-20T18:54:14.949Z,11.65
2023-10-20T18:56:41.473Z,13.20
2023-10-20T18:59:08.015Z,12.57
2023-10-20T19:01:34.696Z,9.98
2023-10-20T19:04:02.534Z,12.73
2023-10-20T19:06:29.682Z,17.30
2023-10-20T19:08:56.360Z,10.75
2023-10-20T19:11:23.142Z,15.10
2023-10-20T19:13:49.608Z,9.90
2023-10-20T19:16:16.682Z,11.80
2023-10-20T19:18:43.788Z,13.07
2023-10-20T19:21:12.282Z,12.93
2023-10-20T19:23:39.274Z,14.00
2023-10-20T19:26:09.007Z,16.92
2023-10-20T19:28:35.681Z,18.60
2023-10-20T19:31:03.145Z,12.18
2023-10-20T19:33:31.904Z,15.45
2023-10-20T19:36:06.357Z,16.38
2023-10-20T19:38:33.308Z,12.52
2023-10-20T19:40:59.845Z,13.60
2023-10-20T19:43:27.238Z,17.65
2023-10-20T19:45:54.243Z,14.88
2023-10-20T19:48:20.901Z,12.45
2023-10-20T19:50:47.459Z,11.80
2023-10-20T19:53:14.899Z,13.80
2023-10-20T19:55:42.382Z,11.15
2023-10-20T19:58:08.895Z,12.00
2023-10-20T20:00:35.609Z,12.23
2023-10-20T20:03:02.399Z,22.13
2023-10-20T20:05:29.005Z,16.67
2023-10-20T20:07:55.891Z,13.98
2023-10-20T20:10:24.931Z,10.98
2023-10-20T20:12:51.742Z,13.40
2023-10-20T20:15:18.867Z,14.23
2023-10-20T20:17:45.576Z,13.13
2023-10-20T20:20:13.258Z,11.52
2023-10-20T20:22:39.889Z,17.85
2023-10-20T20:25:06.592Z,14.75
2023-10-20T20:27:33.110Z,18.90
2023-10-20T20:29:59.668Z,21.38
2023-10-20T20:32:26.224Z,19.80
2023-10-20T20:34:52.776Z,18.17
2023-10-20T20:37:20.315Z,16.50
2023-10-20T20:39:47.027Z,14.95
2023-10-20T20:42:14.952Z,13.27
2023-10-20T20:44:41.573Z,15.25
2023-10-20T20:47:08.235Z,16.05
2023-10-20T20:49:35.801Z,15.35
2023-10-20T20:52:02.658Z,14.13
2023-10-20T20:54:29.233Z,17.55
2023-10-20T20:56:55.831Z,15.27
2023-10-20T20:59:22.381Z,17.08
2023-10-20T21:01:48.995Z,20.17
2023-10-20T21:04:15.659Z,17.83
2023-10-20T21:06:42.263Z,19.85
2023-10-20T21:09:10.438Z,18.40
2023-10-20T21:11:37.723Z,14.95
2023-10-20T21:14:04.299Z,17.75
2023-10-20T21:16:32.120Z,18.27
2023-10-20T21:19:01.573Z,21.20
2023-10-20T21:21:28.433Z,17.77
2023-10-20T21:23:55.036Z,15.38
2023-10-20T21:26:22.871Z,14.88
2023-10-20T21:28:49.544Z,14.15
2023-10-20T21:31:16.249Z,12.85
2023-10-20T21:33:42.965Z,11.70
2023-10-20T21:36:14.600Z,15.52
2023-10-20T21:38:41.180Z,10.75
2023-10-20T21:41:07.856Z,12.43
2023-10-20T21:43:34.554Z,13.10
2023-10-20T21:46:01.233Z,12.38
2023-10-20T21:48:27.996Z,11.05
2023-10-20T21:50:58.418Z,12.43
2023-10-20T21:53:25.395Z,9.30
2023-10-20T21:56:02.183Z,10.85
2023-10-20T21:58:29.025Z,16.48
2023-10-20T22:00:56.200Z,11.35
2023-10-20T22:03:23.207Z,12.00
2023-10-20T22:05:51.289Z,18.83
2023-10-20T22:08:17.808Z,11.68
2023-10-20T22:10:44.549Z,14.82
2023-10-20T22:13:11.078Z,13.77
2023-10-20T22:15:37.707Z,12.02
2023-10-20T22:18:05.160Z,11.63
2023-10-20T22:20:31.661Z,14.60
2023-10-20T22:22:58.237Z,16.00
2023-10-20T22:25:24.780Z,12.55
2023-10-20T22:27:51.428Z,13.25
2023-10-20T22:30:18.586Z,12.98
2023-10-20T22:32:45.560Z,16.88
2023-10-20T22:35:12.151Z,19.85
2023-10-20T22:37:38.706Z,15.93
2023-10-20T22:40:05.417Z,14.30
2023-10-20T22:42:32.243Z,13.27
2023-10-20T22:44:58.830Z,14.15
2023-10-20T22:47:25.510Z,13.93
2023-10-20T22:49:52.349Z,11.23
2023-10-20T22:52:18.797Z,16.48
2023-10-20T22:54:45.287Z,14.68
2023-10-20T22:57:11.978Z,16.40
2023-10-20T22:59:38.544Z,20.63
2023-10-20T23:02:05.103Z,12.70
2023-10-20T23:04:31.731Z,13.57
2023-10-20T23:06:58.459Z,15.52
2023-10-20T23:09:24.953Z,14.88
2023-10-20T23:11:52.305Z,10.50
2023-10-20T23:14:18.909Z,12.05
2023-10-20T23:16:45.437Z,11.93
2023-10-20T23:19:12.008Z,12.57
2023-10-20T23:21:38.588Z,13.43
2023-10-20T23:24:05.274Z,12.95
2023-10-20T23:26:31.983Z,13.07
2023-10-20T23:28:58.462Z,12.60
2023-10-20T23:31:24.989Z,12.88
2023-10-20T23:33:52.018Z,14.02
2023-10-20T23:36:18.727Z,12.00
2023-10-20T23:38:45.240Z,12.18
2023-10-20T23:41:11.754Z,18.73
2023-10-20T23:43:38.242Z,13.15
2023-10-20T23:46:04.830Z,13.40
2023-10-20T23:48:31.523Z,10.25
2023-10-20T23:50:58.123Z,9.90
2023-10-20T23:53:24.637Z,10.00
2023-10-20T23:55:51.064Z,8.25
2023-10-20T23:58:17.526Z,13.10
